MAPA DE AEROPUERTO

INFORMACIÓN METAR y TAF

METAR FOR LEVC
ADDS - METARS form results

(2039 UTC 18 May 2021)
Data provider http://aviationweather.gov/metar/data/
 
METAR text: LEVC 182030Z 07005KT CAVOK 19/16 Q1015 NOSIG
Conditions at: LEVC (VALENCIA (CIV/MI, ES) observed 2030 UTC 18 May 2021
Temperature: 19.0°C (66°F)
Dewpoint: 16.0°C (61°F) [RH = 83%]
Pressure (altimeter): 29.97 inches Hg (1015.0 mb)
Winds: from the ENE (70 degrees) at 6 MPH (5 knots; 2.6 m/s)
Visibility: 6 or more miles (10+ km)
Ceiling: ceiling and visibility are OK
Clouds: unknown
Weather: no significant weather observed at this time

METAR text: LEVC 182000Z 07007KT CAVOK 20/16 Q1015 NOSIG
Conditions at: LEVC (VALENCIA (CIV/MI, ES) observed 2000 UTC 18 May 2021
Temperature: 20.0°C (68°F)
Dewpoint: 16.0°C (61°F) [RH = 78%]
Pressure (altimeter): 29.97 inches Hg (1015.0 mb)
Winds: from the ENE (70 degrees) at 8 MPH (7 knots; 3.6 m/s)
Visibility: 6 or more miles (10+ km)
Ceiling: ceiling and visibility are OK
Clouds: unknown
Weather: no significant weather observed at this time

Forecast for: LEVC (VALENCIA (CIV/MI, ES)
Text: TAF LEVC 181700Z 1818/1918 10010KT 9999 FEW025 TX22/1912Z TN16/1906Z
Forecast period: 1800 UTC 18 May 2021 to 1800 UTC 19 May 2021
Forecast type: FROM: standard forecast or significant change
Winds: from the E (100 degrees) at 12 MPH (10 knots; 5.1 m/s)
Visibility: 6 or more miles (10+ km)
Ceiling: at least 12,000 feet AGL
Clouds: few clouds at 2500 feet AGL
Weather: no significant weather forecast for this period
Text: BECMG 1818/1820 VRB03KT
Forecast period: 1800 UTC 18 May 2021 to 0700 UTC 19 May 2021
Forecast type: BECOMING: Conditions expected to become as follows by 2000 UTC 18 May 2021
Winds: variable direction winds at 3 MPH (3 knots; 1.5 m/s)
Visibility: 6 or more miles (10+ km)
Ceiling: at least 12,000 feet AGL
Clouds: few clouds at 2500 feet AGL
Weather: no significant weather forecast for this period
Text: BECMG 1907/1909 10010KT
Forecast period: 0700 to 1800 UTC 19 May 2021
Forecast type: BECOMING: Conditions expected to become as follows by 0900 UTC 19 May 2021
Winds: from the E (100 degrees) at 12 MPH (10 knots; 5.1 m/s)
Visibility: 6 or more miles (10+ km)
Ceiling: at least 12,000 feet AGL
Clouds: few clouds at 2500 feet AGL
Weather: no significant weather forecast for this period